createdAt,value
2023-04-19T00:01:35.488Z,6.40
2023-04-19T00:06:42.115Z,7.13
2023-04-19T00:11:46.162Z,6.67
2023-04-19T00:16:50.198Z,6.93
2023-04-19T00:21:56.753Z,7.30
2023-04-19T00:27:03.809Z,7.37
2023-04-19T00:32:08.737Z,6.97
2023-04-19T00:37:12.774Z,7.37
2023-04-19T00:42:19.832Z,7.07
2023-04-19T00:47:22.134Z,6.40
2023-04-19T00:52:29.097Z,6.97
2023-04-19T00:57:33.970Z,7.73
2023-04-19T01:02:37.990Z,7.07
2023-04-19T01:07:39.900Z,7.07
2023-04-19T01:12:44.380Z,6.47
2023-04-19T01:17:46.299Z,6.40
2023-04-19T01:22:50.372Z,5.67
2023-04-19T01:27:54.294Z,5.83
2023-04-19T01:32:58.793Z,6.43
2023-04-19T01:38:01.079Z,6.10
2023-04-19T01:43:05.490Z,5.70
2023-04-19T01:48:10.070Z,5.97
2023-04-19T01:53:18.920Z,5.70
2023-04-19T01:58:21.038Z,5.77
2023-04-19T02:03:28.043Z,5.23
2023-04-19T02:08:30.156Z,5.50
2023-04-19T02:13:36.094Z,5.70
2023-04-19T02:18:43.540Z,5.43
2023-04-19T02:23:45.756Z,5.30
2023-04-19T02:28:52.140Z,5.53
2023-04-19T02:33:58.428Z,4.93
2023-04-19T02:39:02.174Z,4.73
2023-04-19T02:44:06.101Z,5.03
2023-04-19T02:49:10.395Z,4.73
2023-04-19T02:54:14.924Z,4.40
2023-04-19T02:59:18.706Z,4.73
2023-04-19T03:04:22.137Z,4.43
2023-04-19T03:09:27.270Z,4.57
2023-04-19T03:14:34.070Z,4.77
2023-04-19T03:19:36.124Z,4.63
2023-04-19T03:24:38.254Z,3.80
2023-04-19T03:29:57.333Z,4.80
2023-04-19T03:35:02.526Z,4.30
2023-04-19T03:40:08.504Z,5.03
2023-04-19T03:45:15.067Z,5.13
2023-04-19T03:50:21.234Z,4.67
2023-04-19T03:55:26.580Z,4.50
2023-04-19T04:00:28.345Z,4.47
2023-04-19T04:05:35.215Z,5.33
2023-04-19T04:10:37.147Z,4.70
2023-04-19T04:15:41.922Z,5.40
2023-04-19T04:20:46.880Z,5.10
2023-04-19T04:25:58.036Z,5.20
2023-04-19T04:31:03.583Z,5.28
2023-04-19T04:36:12.074Z,4.80
2023-04-19T04:41:17.096Z,4.73
2023-04-19T04:46:21.766Z,3.77
2023-04-19T04:51:28.510Z,4.63
2023-04-19T04:56:31.873Z,4.00
2023-04-19T05:01:34.075Z,3.90
2023-04-19T05:06:36.919Z,3.57
2023-04-19T05:11:38.957Z,4.07
2023-04-19T05:16:43.810Z,3.50
2023-04-19T05:21:45.694Z,3.53
2023-04-19T05:26:50.699Z,3.37
2023-04-19T05:31:58.500Z,3.67
2023-04-19T05:37:09.303Z,4.00
2023-04-19T05:42:11.252Z,3.70
2023-04-19T05:47:20.542Z,3.07
2023-04-19T05:52:34.523Z,3.17
2023-04-19T05:57:42.492Z,3.20
2023-04-19T06:02:47.460Z,2.87
2023-04-19T06:07:59.429Z,3.00
2023-04-19T06:13:04.125Z,3.00
2023-04-19T06:18:10.281Z,2.40
2023-04-19T06:23:20.901Z,2.87
2023-04-19T06:28:22.609Z,2.50
2023-04-19T06:33:26.598Z,2.50
2023-04-19T06:38:31.462Z,2.47
2023-04-19T06:43:33.375Z,2.90
2023-04-19T06:48:40.310Z,2.67
2023-04-19T06:53:44.788Z,2.80
2023-04-19T06:58:46.539Z,2.90
2023-04-19T07:03:48.597Z,2.57
2023-04-19T07:08:50.730Z,3.20
2023-04-19T07:13:52.478Z,2.90
2023-04-19T07:18:54.272Z,2.07
2023-04-19T07:23:58.222Z,2.33
2023-04-19T07:29:02.713Z,2.50
2023-04-19T07:34:04.497Z,2.40
2023-04-19T07:39:08.501Z,2.40
2023-04-19T07:44:13.597Z,2.57
2023-04-19T07:49:18.214Z,2.77
2023-04-19T07:54:22.934Z,2.53
2023-04-19T07:59:27.049Z,2.40
2023-04-19T08:04:31.627Z,2.57
2023-04-19T08:09:34.582Z,2.53
2023-04-19T08:19:44.744Z,2.60
2023-04-19T08:24:46.521Z,2.33
2023-04-19T08:29:52.769Z,2.13
2023-04-19T08:34:57.585Z,2.10
2023-04-19T08:40:01.510Z,2.10
2023-04-19T08:50:28.307Z,2.47
2023-04-19T08:55:36.025Z,2.00
2023-04-19T09:00:41.475Z,2.10
2023-04-19T09:05:45.558Z,2.40
2023-04-19T09:10:59.525Z,2.13
2023-04-19T09:16:01.292Z,2.43
2023-04-19T09:21:03.151Z,2.30
2023-04-19T09:26:22.786Z,2.53
2023-04-19T09:31:47.309Z,2.70
2023-04-19T09:37:00.717Z,2.87
2023-04-19T09:42:13.107Z,2.73
2023-04-19T09:47:30.211Z,2.90
2023-04-19T09:52:32.933Z,3.10
2023-04-19T09:57:34.902Z,2.85
2023-04-19T10:02:37.107Z,3.03
2023-04-19T10:07:41.477Z,2.90
2023-04-19T10:13:11.019Z,2.80
2023-04-19T10:18:11.283Z,3.05
2023-04-19T10:23:13.189Z,2.42
2023-04-19T10:28:20.456Z,1.77
2023-04-19T10:33:31.839Z,2.15
2023-04-19T10:38:36.844Z,1.77
2023-04-19T10:43:39.415Z,1.83
2023-04-19T10:49:00.412Z,1.52
2023-04-19T10:54:27.602Z,1.60
2023-04-19T10:59:34.715Z,1.65
2023-04-19T11:04:36.630Z,1.48
2023-04-19T11:09:42.015Z,1.75
2023-04-19T11:14:45.306Z,1.70
2023-04-19T11:19:57.037Z,1.50
2023-04-19T11:25:21.178Z,1.75
2023-04-19T11:30:29.501Z,1.70
2023-04-19T11:35:31.441Z,1.92
2023-04-19T11:40:33.301Z,1.80
2023-04-19T11:45:39.558Z,1.75
2023-04-19T11:50:43.943Z,1.80
2023-04-19T11:55:57.574Z,1.60
2023-04-19T12:01:09.528Z,1.30
2023-04-19T12:06:13.755Z,1.30
2023-04-19T12:11:24.518Z,1.35
2023-04-19T12:16:29.294Z,1.60
2023-04-19T12:21:33.925Z,1.42
2023-04-19T12:26:35.868Z,1.40
2023-04-19T12:31:39.960Z,1.33
2023-04-19T12:36:44.664Z,1.58
2023-04-19T12:41:48.785Z,1.30
2023-04-19T12:46:50.511Z,1.20
2023-04-19T12:51:52.170Z,1.95
2023-04-19T12:56:53.842Z,1.40
2023-04-19T13:02:02.837Z,1.30
2023-04-19T13:07:07.051Z,1.60
2023-04-19T13:12:12.321Z,1.33
2023-04-19T13:17:14.025Z,1.45
2023-04-19T13:22:17.744Z,1.27
2023-04-19T13:27:19.490Z,1.30
2023-04-19T13:32:23.749Z,1.50
2023-04-19T13:37:27.835Z,1.13
2023-04-19T13:42:29.606Z,1.40
2023-04-19T13:47:31.422Z,1.27
2023-04-19T13:52:37.953Z,1.70
2023-04-19T13:57:42.754Z,1.45
2023-04-19T14:02:46.117Z,1.20
2023-04-19T14:07:47.992Z,1.20
2023-04-19T14:12:52.760Z,1.02
2023-04-19T14:17:54.609Z,1.10
2023-04-19T14:22:58.916Z,1.63
2023-04-19T14:28:00.673Z,1.40
2023-04-19T14:33:02.425Z,1.45
2023-04-19T14:38:04.297Z,1.70
2023-04-19T14:43:08.381Z,1.45
2023-04-19T14:48:20.819Z,1.77
2023-04-19T14:53:26.378Z,1.95
2023-04-19T14:58:28.240Z,1.70
2023-04-19T15:03:30.128Z,1.65
2023-04-19T15:08:34.164Z,2.15
2023-04-19T15:13:35.989Z,2.13
2023-04-19T15:18:40.664Z,2.08
2023-04-19T15:23:42.625Z,2.80
2023-04-19T15:28:46.763Z,1.98
2023-04-19T15:33:48.457Z,2.00
2023-04-19T15:38:52.504Z,2.00
2023-04-19T15:43:56.506Z,2.20
2023-04-19T15:49:00.446Z,2.38
2023-04-19T15:54:02.246Z,2.25
2023-04-19T15:59:08.636Z,1.90
2023-04-19T16:04:13.130Z,1.80
2023-04-19T16:09:17.829Z,2.17
2023-04-19T16:14:19.771Z,1.85
2023-04-19T16:19:23.255Z,2.03
2023-04-19T16:24:25.254Z,1.70
2023-04-19T16:29:29.308Z,1.85
2023-04-19T16:34:33.619Z,2.35
2023-04-19T16:39:37.639Z,1.60
2023-04-19T16:44:39.454Z,1.65
2023-04-19T16:49:41.136Z,1.45
2023-04-19T16:54:45.800Z,1.85
2023-04-19T16:59:52.865Z,1.65
2023-04-19T17:04:58.684Z,1.70
2023-04-19T17:10:03.124Z,1.90
2023-04-19T17:15:07.792Z,1.58
2023-04-19T17:20:10.001Z,1.67
2023-04-19T17:25:11.700Z,1.48
2023-04-19T17:30:13.677Z,1.58
2023-04-19T17:35:15.998Z,1.70
2023-04-19T17:40:21.064Z,1.52
2023-04-19T17:45:25.214Z,1.80
2023-04-19T17:50:29.409Z,1.83
2023-04-19T17:55:32.235Z,2.17
2023-04-19T18:00:36.509Z,2.30
2023-04-19T18:05:41.551Z,2.25
2023-04-19T18:10:45.367Z,2.00
2023-04-19T18:15:49.717Z,2.53
2023-04-19T18:20:51.377Z,2.13
2023-04-19T18:25:55.681Z,2.53
2023-04-19T18:30:59.728Z,2.15
2023-04-19T18:36:06.630Z,2.08
2023-04-19T18:41:11.354Z,2.40
2023-04-19T18:46:13.820Z,1.90
2023-04-19T18:51:15.640Z,2.15
2023-04-19T18:56:18.608Z,2.10
2023-04-19T19:01:21.285Z,2.15
2023-04-19T19:06:25.404Z,2.15
2023-04-19T19:11:51.969Z,2.40
2023-04-19T19:16:52.894Z,2.20
2023-04-19T19:21:57.236Z,2.20
2023-04-19T19:27:04.140Z,2.13
2023-04-19T19:32:09.663Z,2.00
2023-04-19T19:37:11.958Z,2.00
2023-04-19T19:42:16.377Z,1.80
2023-04-19T19:47:18.352Z,2.00
2023-04-19T19:52:21.537Z,2.20
2023-04-19T20:02:34.073Z,2.13
2023-04-19T20:08:00.383Z,1.98
2023-04-19T20:13:02.098Z,1.90
2023-04-19T20:18:08.418Z,2.00
2023-04-19T20:23:10.155Z,2.30
2023-04-19T20:28:12.591Z,3.60
2023-04-19T20:33:18.966Z,2.80
2023-04-19T20:38:28.616Z,2.20
2023-04-19T20:43:35.334Z,2.70
2023-04-19T20:48:39.472Z,2.20
2023-04-19T20:53:41.307Z,2.83
2023-04-19T20:58:43.295Z,2.90
2023-04-19T21:03:45.273Z,3.00
2023-04-19T21:08:47.018Z,2.77
2023-04-19T21:13:48.830Z,2.67
2023-04-19T21:18:52.840Z,2.80
2023-04-19T21:23:56.950Z,2.30
2023-04-19T21:29:05.560Z,2.30
2023-04-19T21:34:14.558Z,2.10
2023-04-19T21:39:18.646Z,2.33
2023-04-19T21:44:22.700Z,2.33
2023-04-19T21:49:24.439Z,2.30
2023-04-19T21:54:33.235Z,2.00
2023-04-19T21:59:36.439Z,1.87
2023-04-19T22:04:41.529Z,2.20
2023-04-19T22:09:43.432Z,1.90
2023-04-19T22:14:47.388Z,2.00
2023-04-19T22:19:51.542Z,1.70
2023-04-19T22:24:57.880Z,1.87
2023-04-19T22:30:00.009Z,1.70
2023-04-19T22:35:06.827Z,1.63
2023-04-19T22:40:09.571Z,2.27
2023-04-19T22:45:11.436Z,2.27
2023-04-19T22:50:13.110Z,1.93
2023-04-19T22:55:17.346Z,1.88
2023-04-19T23:00:20.346Z,1.70
2023-04-19T23:05:26.884Z,2.03
2023-04-19T23:10:28.765Z,1.90
2023-04-19T23:15:33.099Z,1.77
2023-04-19T23:20:37.650Z,1.87
2023-04-19T23:25:39.291Z,2.10
2023-04-19T23:30:41.103Z,1.70
2023-04-19T23:35:44.992Z,1.97
2023-04-19T23:40:51.508Z,2.17
2023-04-19T23:45:57.856Z,2.00
2023-04-19T23:50:59.548Z,2.60
2023-04-19T23:56:03.573Z,1.90
